Time;durP1;ratioP1;P1;durP2;ratioP2;P2;SDS_P1;SDS_P2;PMS_P1;PMS_P2;Temp;Humidity;BMP_temperature;BMP_pressure;BME280_temperature;BME280_humidity;BME280_pressure;Samples;Min_cycle;Max_cycle;Signal;HPM_P1;HPM_P2
2022/08/01 00:05:56;;;;;;;5.13;3.50;;;;;;;;;;4997789;28;20099;-62
2022/08/01 00:08:23;;;;;;;5.55;3.90;;;;;;;;;;5013328;28;20049;-60
2022/08/01 00:10:50;;;;;;;5.93;4.20;;;;;;;;;;4995350;28;20046;-61
2022/08/01 00:13:16;;;;;;;5.75;3.80;;;;;;;;;;4996031;28;20105;-62
2022/08/01 00:15:43;;;;;;;6.40;4.00;;;;;;;;;;4995903;28;20042;-62
2022/08/01 00:18:10;;;;;;;6.20;4.15;;;;;;;;;;4995372;28;20041;-60
2022/08/01 00:20:36;;;;;;;6.50;4.10;;;;;;;;;;4995751;28;20046;-60
2022/08/01 00:23:04;;;;;;;5.60;4.15;;;;;;;;;;4997009;28;20112;-61
2022/08/01 00:25:31;;;;;;;5.68;3.92;;;;;;;;;;4995100;28;20038;-62
2022/08/01 00:27:58;;;;;;;6.22;4.22;;;;;;;;;;4997750;28;20483;-61
2022/08/01 00:30:24;;;;;;;6.35;4.40;;;;;;;;;;4994303;28;20074;-62
2022/08/01 00:32:53;;;;;;;7.88;4.60;;;;;;;;;;4996735;28;20141;-61
2022/08/01 00:35:20;;;;;;;7.18;4.80;;;;;;;;;;4995553;28;20045;-61
2022/08/01 00:37:46;;;;;;;6.80;4.38;;;;;;;;;;4995166;28;20045;-60
2022/08/01 00:40:13;;;;;;;6.18;4.60;;;;;;;;;;4997313;28;20151;-60
2022/08/01 00:42:41;;;;;;;7.05;4.72;;;;;;;;;;4994348;28;20045;-61
2022/08/01 00:45:08;;;;;;;7.45;5.00;;;;;;;;;;4994030;28;20041;-61
2022/08/01 00:47:34;;;;;;;7.55;4.80;;;;;;;;;;4994180;28;20109;-62
2022/08/01 00:50:01;;;;;;;6.53;4.45;;;;;;;;;;4995543;28;20042;-62
2022/08/01 00:52:27;;;;;;;7.57;4.60;;;;;;;;;;4997514;28;20590;-62
2022/08/01 00:54:54;;;;;;;7.75;5.28;;;;;;;;;;4999252;28;20050;-61
2022/08/01 00:57:20;;;;;;;8.07;5.32;;;;;;;;;;4998534;28;20106;-62
2022/08/01 00:59:47;;;;;;;7.75;5.43;;;;;;;;;;4998988;28;20039;-61
2022/08/01 01:02:14;;;;;;;7.95;5.45;;;;;;;;;;4998182;28;20496;-62
2022/08/01 01:04:41;;;;;;;7.97;5.70;;;;;;;;;;4996155;28;20624;-62
2022/08/01 01:07:10;;;;;;;9.15;5.35;;;;;;;;;;4999731;28;20038;-62
2022/08/01 01:09:51;;;;;;;9.32;5.53;;;;;;;;;;4998368;28;20050;-62
2022/08/01 01:12:25;;;;;;;8.85;5.93;;;;;;;;;;5000437;28;20081;-61
2022/08/01 01:14:55;;;;;;;7.72;5.68;;;;;;;;;;4999784;28;20393;-61
2022/08/01 01:17:25;;;;;;;9.13;5.60;;;;;;;;;;4998371;28;20488;-61
2022/08/01 01:19:55;;;;;;;8.63;5.65;;;;;;;;;;4996439;28;20038;-60
2022/08/01 01:22:24;;;;;;;9.00;5.88;;;;;;;;;;4996371;28;20519;-62
2022/08/01 01:25:01;;;;;;;8.18;5.15;;;;;;;;;;4997877;28;20046;-61
2022/08/01 01:27:48;;;;;;;7.25;5.50;;;;;;;;;;4998365;28;20052;-61
2022/08/01 01:30:15;;;;;;;9.98;6.00;;;;;;;;;;4998161;28;20104;-61
2022/08/01 01:32:47;;;;;;;8.35;5.88;;;;;;;;;;4997533;28;20508;-60
2022/08/01 01:35:20;;;;;;;9.30;5.57;;;;;;;;;;4997741;28;20414;-61
2022/08/01 01:37:49;;;;;;;7.78;5.35;;;;;;;;;;4996658;28;20041;-61
2022/08/01 01:40:16;;;;;;;7.05;5.25;;;;;;;;;;4996479;28;20390;-60
2022/08/01 01:42:44;;;;;;;8.27;5.40;;;;;;;;;;4997885;28;20472;-60
2022/08/01 01:45:11;;;;;;;8.43;5.13;;;;;;;;;;4998680;28;20072;-61
2022/08/01 01:47:39;;;;;;;7.05;4.78;;;;;;;;;;4994363;28;20061;-60
2022/08/01 01:50:06;;;;;;;7.38;4.80;;;;;;;;;;4998244;28;20041;-61
2022/08/01 01:52:33;;;;;;;6.63;4.70;;;;;;;;;;4997307;28;20030;-61
2022/08/01 01:55:00;;;;;;;9.05;4.78;;;;;;;;;;4997222;28;20104;-61
2022/08/01 01:57:28;;;;;;;8.57;4.90;;;;;;;;;;4999955;28;20037;-62
2022/08/01 01:59:55;;;;;;;8.00;4.78;;;;;;;;;;4997594;28;20072;-61
2022/08/01 02:02:23;;;;;;;8.77;5.20;;;;;;;;;;4997271;28;20050;-62
2022/08/01 02:04:50;;;;;;;6.85;5.05;;;;;;;;;;4996387;28;20970;-60
2022/08/01 02:07:23;;;;;;;7.35;5.05;;;;;;;;;;4999212;28;20047;-60
2022/08/01 02:09:49;;;;;;;7.22;5.00;;;;;;;;;;4996940;28;20139;-60
2022/08/01 02:12:17;;;;;;;7.90;5.15;;;;;;;;;;4998690;28;20524;-60
2022/08/01 02:14:45;;;;;;;7.15;4.97;;;;;;;;;;4995958;28;20757;-60
2022/08/01 02:17:13;;;;;;;7.72;5.50;;;;;;;;;;4998261;28;20092;-61
2022/08/01 02:19:40;;;;;;;8.65;5.85;;;;;;;;;;5003023;28;20729;-61
2022/08/01 02:22:17;;;;;;;9.43;4.95;;;;;;;;;;5025316;28;20052;-61
2022/08/01 02:24:55;;;;;;;9.40;5.15;;;;;;;;;;5012135;28;20574;-60
2022/08/01 02:27:25;;;;;;;8.32;5.20;;;;;;;;;;4995891;28;20105;-61
2022/08/01 02:30:04;;;;;;;7.93;5.47;;;;;;;;;;4997178;28;20037;-59
2022/08/01 02:32:32;;;;;;;8.43;5.22;;;;;;;;;;4997267;28;20049;-61
2022/08/01 02:35:00;;;;;;;8.20;5.57;;;;;;;;;;4997835;28;20054;-61
2022/08/01 02:37:27;;;;;;;10.02;5.63;;;;;;;;;;4997292;28;20456;-64
2022/08/01 02:39:55;;;;;;;9.10;5.43;;;;;;;;;;4997468;28;20707;-61
2022/08/01 02:42:23;;;;;;;8.40;5.18;;;;;;;;;;4995277;28;20037;-62
2022/08/01 02:44:50;;;;;;;7.38;5.00;;;;;;;;;;4997576;28;20045;-61
2022/08/01 02:47:20;;;;;;;9.00;5.85;;;;;;;;;;4997790;28;20049;-62
2022/08/01 02:49:48;;;;;;;8.75;5.97;;;;;;;;;;4995751;28;20042;-62
2022/08/01 02:52:16;;;;;;;9.00;5.85;;;;;;;;;;4997727;28;20110;-61
2022/08/01 02:54:45;;;;;;;8.88;5.88;;;;;;;;;;4997020;28;20129;-61
2022/08/01 02:57:13;;;;;;;8.00;5.50;;;;;;;;;;4996344;28;20123;-62
2022/08/01 02:59:41;;;;;;;8.27;5.85;;;;;;;;;;4996709;28;20203;-62
2022/08/01 03:02:08;;;;;;;9.45;6.68;;;;;;;;;;4996952;28;20064;-61
2022/08/01 03:04:36;;;;;;;9.13;6.80;;;;;;;;;;4994729;28;20119;-62
2022/08/01 03:07:03;;;;;;;9.05;6.60;;;;;;;;;;4998020;28;20400;-63
2022/08/01 03:09:31;;;;;;;9.73;6.70;;;;;;;;;;4996122;28;20062;-63
2022/08/01 03:11:59;;;;;;;9.38;6.68;;;;;;;;;;4997566;28;20063;-63
2022/08/01 03:14:26;;;;;;;10.10;6.30;;;;;;;;;;4995382;28;20064;-62
2022/08/01 03:16:53;;;;;;;8.82;6.43;;;;;;;;;;4995873;28;20127;-61
2022/08/01 03:19:21;;;;;;;12.60;7.10;;;;;;;;;;4997203;28;20104;-61
2022/08/01 03:21:49;;;;;;;10.80;6.60;;;;;;;;;;4995852;28;20064;-62
2022/08/01 03:24:17;;;;;;;8.82;6.70;;;;;;;;;;4995291;28;20073;-62
2022/08/01 03:26:44;;;;;;;8.88;6.60;;;;;;;;;;4999044;28;20045;-61
2022/08/01 03:29:16;;;;;;;9.80;6.93;;;;;;;;;;4998762;28;20038;-61
2022/08/01 03:31:45;;;;;;;9.02;7.00;;;;;;;;;;4997218;28;20029;-61
2022/08/01 03:34:12;;;;;;;9.23;7.13;;;;;;;;;;5000861;28;20049;-62
2022/08/01 03:36:43;;;;;;;8.73;6.35;;;;;;;;;;4997153;28;22040;-62
2022/08/01 03:39:12;;;;;;;13.70;6.80;;;;;;;;;;4999324;28;20065;-62
2022/08/01 03:41:40;;;;;;;12.30;7.72;;;;;;;;;;4996212;28;20109;-63
2022/08/01 03:44:11;;;;;;;10.02;6.95;;;;;;;;;;4996176;28;20045;-61
2022/08/01 03:46:43;;;;;;;10.30;7.15;;;;;;;;;;4995755;28;20033;-62
2022/08/01 03:49:15;;;;;;;10.10;7.07;;;;;;;;;;4996337;28;20235;-59
2022/08/01 03:51:41;;;;;;;14.80;8.05;;;;;;;;;;4995463;28;20118;-61
2022/08/01 03:54:09;;;;;;;9.70;6.90;;;;;;;;;;4997467;28;20501;-61
2022/08/01 03:56:37;;;;;;;11.43;7.10;;;;;;;;;;4993831;28;20096;-62
2022/08/01 03:59:04;;;;;;;14.35;7.30;;;;;;;;;;4996760;28;20048;-63
2022/08/01 04:01:33;;;;;;;13.63;7.22;;;;;;;;;;4997156;28;20819;-63
2022/08/01 04:04:01;;;;;;;15.38;8.18;;;;;;;;;;5013740;28;20478;-62
2022/08/01 04:06:27;;;;;;;11.43;7.05;;;;;;;;;;4995630;28;20037;-59
2022/08/01 04:08:58;;;;;;;11.50;7.07;;;;;;;;;;4996004;28;20088;-59
2022/08/01 04:11:25;;;;;;;9.32;6.28;;;;;;;;;;4993250;28;20039;-61
2022/08/01 04:13:53;;;;;;;11.75;7.20;;;;;;;;;;4996072;28;20485;-61
2022/08/01 04:16:20;;;;;;;8.85;6.18;;;;;;;;;;4995721;28;20041;-58
2022/08/01 04:18:47;;;;;;;11.20;6.57;;;;;;;;;;4995207;28;20037;-61
2022/08/01 04:21:14;;;;;;;9.68;6.32;;;;;;;;;;4996183;28;20050;-61
2022/08/01 04:23:44;;;;;;;11.73;6.50;;;;;;;;;;4996437;28;20353;-60
2022/08/01 04:26:11;;;;;;;9.60;5.90;;;;;;;;;;4994265;28;20038;-60
2022/08/01 04:28:39;;;;;;;10.18;6.20;;;;;;;;;;4993455;28;20589;-61
2022/08/01 04:31:09;;;;;;;9.30;5.75;;;;;;;;;;4995430;28;20034;-59
2022/08/01 04:33:36;;;;;;;10.57;5.93;;;;;;;;;;4996077;28;20787;-60
2022/08/01 04:36:04;;;;;;;10.43;6.70;;;;;;;;;;4995641;28;21829;-58
2022/08/01 04:38:31;;;;;;;12.32;6.53;;;;;;;;;;4994815;28;20046;-58
2022/08/01 04:40:58;;;;;;;9.77;6.22;;;;;;;;;;4995168;28;20042;-58
2022/08/01 04:43:25;;;;;;;10.75;7.20;;;;;;;;;;4995515;28;20492;-60
2022/08/01 04:45:52;;;;;;;11.30;7.05;;;;;;;;;;4995258;28;20026;-59
2022/08/01 04:48:21;;;;;;;12.38;7.47;;;;;;;;;;4995734;28;20042;-60
2022/08/01 04:50:48;;;;;;;12.70;7.28;;;;;;;;;;4994212;28;20580;-60
2022/08/01 04:53:16;;;;;;;10.40;7.20;;;;;;;;;;4995104;28;20038;-60
2022/08/01 04:55:43;;;;;;;11.25;7.38;;;;;;;;;;4995405;28;20045;-60
2022/08/01 04:58:13;;;;;;;15.30;8.43;;;;;;;;;;4997221;28;20033;-58
2022/08/01 05:00:39;;;;;;;14.43;9.40;;;;;;;;;;4994698;28;20495;-60
2022/08/01 05:03:06;;;;;;;18.60;11.07;;;;;;;;;;4995961;28;20840;-60
2022/08/01 05:05:33;;;;;;;16.02;10.27;;;;;;;;;;4994812;28;20042;-60
2022/08/01 05:08:00;;;;;;;15.23;10.32;;;;;;;;;;4995319;28;20217;-60
2022/08/01 05:10:27;;;;;;;18.25;11.00;;;;;;;;;;4995062;28;20066;-58
2022/08/01 05:12:53;;;;;;;17.85;11.65;;;;;;;;;;4995388;28;20038;-60
2022/08/01 05:15:21;;;;;;;18.13;12.13;;;;;;;;;;4993803;28;20115;-60
2022/08/01 05:17:47;;;;;;;17.75;12.18;;;;;;;;;;4995623;28;20719;-60
2022/08/01 05:20:14;;;;;;;17.00;11.40;;;;;;;;;;4994926;28;20115;-61
2022/08/01 05:22:40;;;;;;;18.98;12.55;;;;;;;;;;4996620;28;20033;-61
2022/08/01 05:25:07;;;;;;;20.38;14.40;;;;;;;;;;4995891;28;20050;-60
2022/08/01 05:27:39;;;;;;;20.88;13.73;;;;;;;;;;4994614;28;20034;-58
2022/08/01 05:30:12;;;;;;;24.75;13.38;;;;;;;;;;4993473;28;20176;-60
2022/08/01 05:32:39;;;;;;;20.13;12.80;;;;;;;;;;5012893;28;20248;-59
2022/08/01 05:35:06;;;;;;;21.73;14.00;;;;;;;;;;4994657;28;20127;-58
2022/08/01 05:37:32;;;;;;;21.35;14.27;;;;;;;;;;4995173;28;20069;-58
2022/08/01 05:39:59;;;;;;;21.85;15.40;;;;;;;;;;4998621;28;20049;-58
2022/08/01 05:42:26;;;;;;;23.63;15.95;;;;;;;;;;4996869;28;20050;-60
2022/08/01 05:44:52;;;;;;;23.60;14.05;;;;;;;;;;4992773;28;20050;-60
2022/08/01 05:47:19;;;;;;;21.70;13.90;;;;;;;;;;4996787;28;20495;-59
2022/08/01 05:49:46;;;;;;;23.48;12.80;;;;;;;;;;4998499;28;21096;-58
2022/08/01 05:52:13;;;;;;;21.55;12.90;;;;;;;;;;5000321;28;20046;-59
2022/08/01 05:54:39;;;;;;;21.20;12.88;;;;;;;;;;5000993;28;20779;-59
2022/08/01 05:57:06;;;;;;;18.35;11.90;;;;;;;;;;4999764;28;20107;-57
2022/08/01 05:59:33;;;;;;;20.85;11.75;;;;;;;;;;4991158;28;20038;-57
2022/08/01 06:01:59;;;;;;;21.85;14.20;;;;;;;;;;4998810;28;20836;-58
2022/08/01 06:04:26;;;;;;;23.60;13.80;;;;;;;;;;5016670;28;20058;-58
2022/08/01 06:06:52;;;;;;;22.92;14.80;;;;;;;;;;5001528;28;20049;-58
2022/08/01 06:09:19;;;;;;;20.58;13.20;;;;;;;;;;4999844;28;20050;-58
2022/08/01 06:11:45;;;;;;;21.02;13.23;;;;;;;;;;5001422;28;20121;-61
2022/08/01 06:14:12;;;;;;;21.42;13.15;;;;;;;;;;5006058;28;20242;-56
2022/08/01 06:16:39;;;;;;;21.90;13.93;;;;;;;;;;5002007;28;20104;-59
2022/08/01 06:19:05;;;;;;;20.60;13.25;;;;;;;;;;5000183;28;20204;-61
2022/08/01 06:21:32;;;;;;;23.40;14.02;;;;;;;;;;4997971;28;20176;-61
2022/08/01 06:23:58;;;;;;;20.25;13.10;;;;;;;;;;5000134;28;20644;-60
2022/08/01 06:26:25;;;;;;;21.50;13.48;;;;;;;;;;4998344;28;20045;-60
2022/08/01 06:28:51;;;;;;;23.30;13.50;;;;;;;;;;4994880;28;20041;-58
2022/08/01 06:31:18;;;;;;;22.33;13.32;;;;;;;;;;5024220;28;20512;-59
2022/08/01 06:33:45;;;;;;;24.92;14.30;;;;;;;;;;4998884;28;20164;-60
2022/08/01 06:36:11;;;;;;;24.25;14.68;;;;;;;;;;5002493;28;20828;-60
2022/08/01 06:38:38;;;;;;;21.30;13.43;;;;;;;;;;4997621;28;21520;-59
2022/08/01 06:41:04;;;;;;;24.45;14.40;;;;;;;;;;5001422;28;20096;-59
2022/08/01 06:43:31;;;;;;;24.15;15.38;;;;;;;;;;4998205;28;20177;-59
2022/08/01 06:45:58;;;;;;;24.58;14.70;;;;;;;;;;4998072;28;20046;-59
2022/08/01 06:48:24;;;;;;;23.35;15.18;;;;;;;;;;4998004;28;20484;-60
2022/08/01 06:51:07;;;;;;;26.15;16.52;;;;;;;;;;4998199;28;20050;-59
2022/08/01 06:53:34;;;;;;;26.20;16.08;;;;;;;;;;4997937;28;20066;-59
2022/08/01 06:56:01;;;;;;;26.30;16.17;;;;;;;;;;4998750;28;20053;-59
2022/08/01 06:58:27;;;;;;;26.83;16.58;;;;;;;;;;4997953;28;20042;-58
2022/08/01 07:00:54;;;;;;;28.17;16.77;;;;;;;;;;4997160;28;20073;-60
2022/08/01 07:03:20;;;;;;;28.27;17.27;;;;;;;;;;4992229;28;20034;-60
2022/08/01 07:05:47;;;;;;;25.50;16.20;;;;;;;;;;4999476;28;20567;-60
2022/08/01 07:08:13;;;;;;;32.40;18.98;;;;;;;;;;4997597;28;20041;-57
2022/08/01 07:10:40;;;;;;;31.05;19.27;;;;;;;;;;4996409;28;20042;-58
2022/08/01 07:13:07;;;;;;;32.08;18.38;;;;;;;;;;4998707;28;20045;-60
2022/08/01 07:15:33;;;;;;;27.23;17.48;;;;;;;;;;4997711;28;20042;-59
2022/08/01 07:18:03;;;;;;;31.50;19.25;;;;;;;;;;4998357;28;20100;-59
2022/08/01 07:20:30;;;;;;;33.58;20.50;;;;;;;;;;4996597;28;20049;-60
2022/08/01 07:22:56;;;;;;;33.97;20.52;;;;;;;;;;4998867;28;20054;-59
2022/08/01 07:25:23;;;;;;;30.65;20.65;;;;;;;;;;4996349;28;20050;-59
2022/08/01 07:27:55;;;;;;;32.60;20.60;;;;;;;;;;4998349;28;20038;-60
2022/08/01 07:30:21;;;;;;;32.40;21.30;;;;;;;;;;4997230;28;20041;-60
2022/08/01 07:32:48;;;;;;;33.28;21.08;;;;;;;;;;4998137;28;20046;-59
2022/08/01 07:35:15;;;;;;;33.78;21.08;;;;;;;;;;5018329;28;20063;-58
2022/08/01 07:37:41;;;;;;;32.58;20.65;;;;;;;;;;4996954;28;20180;-57
2022/08/01 07:40:08;;;;;;;38.08;21.92;;;;;;;;;;4997429;28;20049;-56
2022/08/01 07:42:35;;;;;;;33.03;21.13;;;;;;;;;;4995998;28;20042;-60
2022/08/01 07:45:01;;;;;;;35.85;22.33;;;;;;;;;;4998203;28;20055;-60
2022/08/01 07:47:28;;;;;;;33.42;20.70;;;;;;;;;;4996335;28;20039;-60
2022/08/01 07:50:04;;;;;;;33.22;21.23;;;;;;;;;;4996820;28;20046;-60
2022/08/01 07:52:31;;;;;;;32.35;19.85;;;;;;;;;;4996773;28;21158;-58
2022/08/01 07:54:58;;;;;;;33.65;19.20;;;;;;;;;;4997321;28;20050;-58
2022/08/01 07:57:25;;;;;;;32.28;19.85;;;;;;;;;;4998928;28;20183;-59
2022/08/01 07:59:52;;;;;;;34.25;20.52;;;;;;;;;;4996963;28;20037;-59
2022/08/01 08:02:18;;;;;;;32.78;21.25;;;;;;;;;;4996416;28;20034;-59
2022/08/01 08:04:45;;;;;;;34.40;22.33;;;;;;;;;;4998071;28;20034;-58
2022/08/01 08:07:11;;;;;;;33.65;21.23;;;;;;;;;;4997570;28;20080;-60
2022/08/01 08:09:38;;;;;;;31.13;21.20;;;;;;;;;;4994436;28;20053;-58
2022/08/01 08:12:05;;;;;;;31.15;20.38;;;;;;;;;;4997740;28;20049;-58
2022/08/01 08:14:32;;;;;;;30.80;21.35;;;;;;;;;;4996724;28;20068;-59
2022/08/01 08:16:58;;;;;;;35.90;22.60;;;;;;;;;;4996623;28;20037;-59
2022/08/01 08:19:25;;;;;;;36.38;21.90;;;;;;;;;;4996470;28;20108;-58
2022/08/01 08:21:52;;;;;;;33.72;21.17;;;;;;;;;;4998006;28;20034;-59
2022/08/01 08:24:23;;;;;;;32.65;20.33;;;;;;;;;;4996366;28;20556;-60
2022/08/01 08:26:51;;;;;;;34.08;20.75;;;;;;;;;;4998230;28;20053;-60
2022/08/01 08:29:18;;;;;;;31.15;20.13;;;;;;;;;;4996273;28;20503;-59
2022/08/01 08:31:45;;;;;;;31.88;20.42;;;;;;;;;;4995347;28;20045;-60
2022/08/01 08:34:11;;;;;;;30.67;19.73;;;;;;;;;;4996722;28;20148;-59
2022/08/01 08:36:38;;;;;;;32.70;20.63;;;;;;;;;;4997692;28;25207;-60
2022/08/01 08:39:05;;;;;;;30.08;20.48;;;;;;;;;;4996643;28;20045;-58
2022/08/01 08:41:33;;;;;;;34.28;20.35;;;;;;;;;;4994517;28;20072;-60
2022/08/01 08:44:01;;;;;;;31.67;20.80;;;;;;;;;;4994749;28;20042;-61
2022/08/01 08:46:28;;;;;;;31.55;20.10;;;;;;;;;;4996873;28;20542;-60
2022/08/01 08:48:58;;;;;;;37.00;21.80;;;;;;;;;;4995545;28;20554;-60
2022/08/01 08:51:27;;;;;;;33.83;21.40;;;;;;;;;;4996577;28;20042;-61
2022/08/01 08:53:57;;;;;;;36.95;20.92;;;;;;;;;;4994702;28;20046;-62
2022/08/01 08:56:24;;;;;;;33.88;21.48;;;;;;;;;;4995809;28;20046;-60
2022/08/01 08:58:51;;;;;;;34.28;21.00;;;;;;;;;;4994980;28;20034;-59
2022/08/01 09:01:18;;;;;;;33.55;20.98;;;;;;;;;;4997759;28;20560;-58
2022/08/01 09:03:45;;;;;;;35.88;22.67;;;;;;;;;;4997476;28;20052;-60
2022/08/01 09:06:12;;;;;;;31.23;20.75;;;;;;;;;;4995355;28;20088;-58
2022/08/01 09:08:38;;;;;;;32.60;20.48;;;;;;;;;;4995126;28;20042;-60
2022/08/01 09:11:05;;;;;;;37.30;21.23;;;;;;;;;;4996226;28;20042;-57
2022/08/01 09:13:31;;;;;;;38.42;21.92;;;;;;;;;;4998070;28;20038;-59
2022/08/01 09:15:58;;;;;;;35.17;22.80;;;;;;;;;;5000799;28;20057;-60
2022/08/01 09:18:31;;;;;;;34.03;20.80;;;;;;;;;;4999605;28;20057;-58
2022/08/01 09:21:08;;;;;;;32.53;20.17;;;;;;;;;;4993729;28;20199;-58
2022/08/01 09:23:38;;;;;;;35.22;21.35;;;;;;;;;;5001204;28;20108;-59
2022/08/01 09:26:05;;;;;;;35.60;21.50;;;;;;;;;;5001893;28;20403;-57
2022/08/01 09:28:32;;;;;;;39.08;22.42;;;;;;;;;;4998294;28;20168;-58
2022/08/01 09:30:58;;;;;;;36.58;21.92;;;;;;;;;;5000524;28;20052;-59
2022/08/01 09:33:25;;;;;;;37.72;24.75;;;;;;;;;;5011271;28;20044;-58
2022/08/01 09:35:56;;;;;;;39.90;24.20;;;;;;;;;;5015587;28;20048;-58
2022/08/01 09:38:23;;;;;;;39.20;24.42;;;;;;;;;;4998449;28;20245;-58
2022/08/01 09:40:50;;;;;;;44.80;26.98;;;;;;;;;;4999277;28;20041;-60
2022/08/01 09:43:17;;;;;;;46.80;28.67;;;;;;;;;;4999350;28;20124;-59
2022/08/01 09:45:44;;;;;;;46.63;27.40;;;;;;;;;;4998349;28;20070;-56
2022/08/01 09:48:11;;;;;;;41.72;24.83;;;;;;;;;;5000289;28;20172;-60
2022/08/01 09:50:45;;;;;;;44.15;26.70;;;;;;;;;;5001697;28;20116;-56
2022/08/01 09:53:11;;;;;;;44.35;27.50;;;;;;;;;;5000332;28;20069;-56
2022/08/01 09:55:39;;;;;;;45.75;25.65;;;;;;;;;;5000258;28;20050;-58
2022/08/01 09:58:05;;;;;;;40.80;25.35;;;;;;;;;;5002372;28;20496;-59
2022/08/01 10:00:33;;;;;;;39.47;24.17;;;;;;;;;;5013821;28;20046;-60
2022/08/01 10:03:00;;;;;;;37.53;23.17;;;;;;;;;;5015066;28;20496;-59
2022/08/01 10:05:33;;;;;;;42.55;25.33;;;;;;;;;;4999343;28;20041;-59
2022/08/01 10:08:02;;;;;;;41.70;24.90;;;;;;;;;;4999959;28;20042;-58
2022/08/01 10:10:29;;;;;;;44.95;26.33;;;;;;;;;;4998646;28;20083;-58
2022/08/01 10:12:58;;;;;;;49.30;29.00;;;;;;;;;;5000221;28;20504;-59
2022/08/01 10:15:25;;;;;;;51.08;30.50;;;;;;;;;;4998132;28;20130;-59
2022/08/01 10:17:56;;;;;;;54.10;29.38;;;;;;;;;;5000146;28;20038;-59
2022/08/01 10:20:23;;;;;;;53.92;29.95;;;;;;;;;;4998454;28;20072;-58
2022/08/01 10:22:51;;;;;;;50.83;28.92;;;;;;;;;;4998328;28;20092;-58
2022/08/01 10:25:18;;;;;;;48.22;27.92;;;;;;;;;;4998851;28;20579;-59
2022/08/01 10:27:49;;;;;;;44.28;25.95;;;;;;;;;;4998483;28;20086;-59
2022/08/01 10:30:15;;;;;;;46.88;28.08;;;;;;;;;;4999763;28;20121;-59
2022/08/01 10:32:42;;;;;;;45.80;25.52;;;;;;;;;;4997369;28;20085;-58
2022/08/01 10:35:15;;;;;;;39.75;23.25;;;;;;;;;;5000240;28;20046;-55
2022/08/01 10:37:42;;;;;;;42.95;23.83;;;;;;;;;;4998591;28;20128;-60
2022/08/01 10:40:09;;;;;;;37.70;23.00;;;;;;;;;;4999454;28;20044;-59
2022/08/01 10:42:36;;;;;;;36.72;23.77;;;;;;;;;;4997303;28;20083;-58
2022/08/01 10:45:03;;;;;;;33.25;22.13;;;;;;;;;;4999747;28;20072;-59
2022/08/01 10:47:39;;;;;;;35.08;22.33;;;;;;;;;;4998485;28;20414;-59
2022/08/01 10:50:16;;;;;;;31.85;20.92;;;;;;;;;;4997140;28;20072;-56
2022/08/01 10:53:03;;;;;;;31.05;19.50;;;;;;;;;;4998747;28;20057;-59
2022/08/01 10:55:29;;;;;;;29.75;19.80;;;;;;;;;;4998412;28;20054;-60
2022/08/01 10:57:56;;;;;;;28.90;19.67;;;;;;;;;;4997639;28;20041;-59
2022/08/01 11:00:23;;;;;;;31.80;19.40;;;;;;;;;;4999745;28;20069;-60
2022/08/01 11:03:03;;;;;;;29.35;19.58;;;;;;;;;;5000561;28;20572;-59
2022/08/01 11:05:34;;;;;;;33.63;20.25;;;;;;;;;;4998170;28;20073;-56
2022/08/01 11:08:06;;;;;;;29.33;19.20;;;;;;;;;;4996604;28;20046;-60
2022/08/01 11:10:42;;;;;;;30.03;19.57;;;;;;;;;;4996262;28;20359;-60
2022/08/01 11:13:11;;;;;;;29.20;18.67;;;;;;;;;;4999370;28;20050;-59
2022/08/01 11:15:38;;;;;;;29.98;18.15;;;;;;;;;;5000726;28;20531;-60
2022/08/01 11:18:23;;;;;;;31.63;19.08;;;;;;;;;;4996624;28;20051;-59
2022/08/01 11:20:57;;;;;;;29.13;17.95;;;;;;;;;;4998021;28;20132;-58
2022/08/01 11:23:24;;;;;;;27.08;18.40;;;;;;;;;;4998437;28;20422;-58
2022/08/01 11:25:52;;;;;;;28.08;17.58;;;;;;;;;;4996792;28;20108;-60
2022/08/01 11:28:19;;;;;;;27.80;18.55;;;;;;;;;;5011192;28;20076;-58
2022/08/01 11:30:46;;;;;;;30.13;17.90;;;;;;;;;;4997097;28;20446;-57
2022/08/01 11:33:13;;;;;;;31.65;19.27;;;;;;;;;;4996816;28;20472;-60
2022/08/01 11:36:00;;;;;;;28.27;18.52;;;;;;;;;;4998386;28;20048;-56
2022/08/01 11:38:28;;;;;;;29.98;18.08;;;;;;;;;;4980971;28;20143;-60
2022/08/01 11:41:12;;;;;;;23.92;15.23;;;;;;;;;;4998899;28;20045;-57
2022/08/01 11:43:59;;;;;;;22.92;13.88;;;;;;;;;;4995422;28;20065;-59
2022/08/01 11:46:44;;;;;;;27.35;17.92;;;;;;;;;;4995422;28;20046;-57
2022/08/01 11:49:23;;;;;;;27.42;19.30;;;;;;;;;;4996335;28;20045;-57
2022/08/01 11:51:50;;;;;;;30.65;18.92;;;;;;;;;;4996602;28;20045;-57
2022/08/01 11:54:17;;;;;;;27.02;17.65;;;;;;;;;;4997047;28;20499;-59
2022/08/01 11:56:43;;;;;;;29.73;19.42;;;;;;;;;;4998253;28;20034;-58
2022/08/01 11:59:10;;;;;;;28.73;18.30;;;;;;;;;;4997857;28;20038;-58
2022/08/01 12:01:36;;;;;;;29.83;19.98;;;;;;;;;;4996690;28;20764;-59
2022/08/01 12:04:04;;;;;;;29.95;19.27;;;;;;;;;;4997133;28;20144;-59
2022/08/01 12:06:30;;;;;;;25.63;17.77;;;;;;;;;;4997298;28;20238;-59
2022/08/01 12:09:15;;;;;;;32.00;17.88;;;;;;;;;;4997066;28;20062;-58
2022/08/01 12:11:41;;;;;;;26.52;17.15;;;;;;;;;;4996381;28;20041;-59
2022/08/01 12:14:08;;;;;;;26.08;17.40;;;;;;;;;;4994283;28;20493;-59
2022/08/01 12:16:35;;;;;;;25.30;17.75;;;;;;;;;;4998226;28;20124;-58
2022/08/01 12:19:03;;;;;;;27.27;18.67;;;;;;;;;;4997790;28;20042;-58
2022/08/01 12:21:29;;;;;;;27.60;17.08;;;;;;;;;;4998826;28;20435;-58
2022/08/01 12:24:04;;;;;;;26.83;17.23;;;;;;;;;;4997964;28;20053;-58
2022/08/01 12:26:41;;;;;;;29.60;17.45;;;;;;;;;;4992336;28;20045;-60
2022/08/01 12:29:08;;;;;;;27.35;16.70;;;;;;;;;;4997240;28;20702;-58
2022/08/01 12:31:35;;;;;;;28.13;16.80;;;;;;;;;;4995277;28;20357;-60
2022/08/01 12:34:20;;;;;;;24.77;16.50;;;;;;;;;;4997199;28;20041;-60
2022/08/01 12:36:47;;;;;;;27.70;17.38;;;;;;;;;;4996934;28;20034;-59
2022/08/01 12:39:13;;;;;;;25.95;16.27;;;;;;;;;;4997082;28;20033;-59
2022/08/01 12:41:43;;;;;;;27.05;16.60;;;;;;;;;;4995248;28;20757;-62
2022/08/01 12:44:16;;;;;;;24.70;15.70;;;;;;;;;;4996312;28;20887;-58
2022/08/01 12:46:43;;;;;;;25.63;15.32;;;;;;;;;;4996913;28;20045;-60
2022/08/01 12:49:10;;;;;;;25.08;15.43;;;;;;;;;;5000866;28;20662;-59
2022/08/01 12:51:37;;;;;;;27.98;17.67;;;;;;;;;;4999909;28;20496;-58
2022/08/01 12:54:04;;;;;;;22.95;15.95;;;;;;;;;;5000121;28;20085;-59
2022/08/01 12:56:34;;;;;;;26.35;16.92;;;;;;;;;;4999735;28;20129;-58
2022/08/01 12:59:02;;;;;;;25.45;15.60;;;;;;;;;;5000855;28;20038;-57
2022/08/01 13:01:29;;;;;;;24.10;15.32;;;;;;;;;;5015145;28;20160;-58
2022/08/01 13:04:03;;;;;;;24.70;15.32;;;;;;;;;;5013168;28;20042;-61
2022/08/01 13:06:30;;;;;;;25.73;15.60;;;;;;;;;;5008446;28;20223;-61
2022/08/01 13:09:05;;;;;;;24.48;15.15;;;;;;;;;;4999406;28;20101;-59
2022/08/01 13:11:32;;;;;;;23.58;15.32;;;;;;;;;;4998547;28;20065;-59
2022/08/01 13:13:58;;;;;;;22.75;14.82;;;;;;;;;;5001559;28;20052;-61
2022/08/01 13:16:26;;;;;;;22.67;14.50;;;;;;;;;;4999492;28;20499;-59
2022/08/01 13:18:54;;;;;;;22.35;14.32;;;;;;;;;;5000319;28;20034;-59
2022/08/01 13:21:21;;;;;;;21.25;13.13;;;;;;;;;;5010886;28;20046;-59
2022/08/01 13:24:02;;;;;;;22.90;15.00;;;;;;;;;;4999108;28;20610;-64
2022/08/01 13:26:38;;;;;;;22.88;15.02;;;;;;;;;;5000743;28;20045;-60
2022/08/01 13:29:06;;;;;;;19.63;13.30;;;;;;;;;;5000510;28;20042;-59
2022/08/01 13:31:33;;;;;;;21.20;13.85;;;;;;;;;;5001281;28;20037;-59
2022/08/01 13:34:00;;;;;;;24.92;14.38;;;;;;;;;;4998414;28;20385;-59
2022/08/01 13:36:28;;;;;;;25.50;13.68;;;;;;;;;;4998890;28;20050;-60
2022/08/01 13:41:40;;;;;;;21.45;13.55;;;;;;;;;;4998221;28;20045;-60
2022/08/01 13:44:08;;;;;;;22.38;14.52;;;;;;;;;;4998816;28;20463;-60
2022/08/01 13:46:35;;;;;;;24.17;12.90;;;;;;;;;;4999122;28;20069;-61
2022/08/01 13:49:03;;;;;;;22.55;14.05;;;;;;;;;;4998366;28;20041;-61
2022/08/01 13:51:29;;;;;;;20.45;13.13;;;;;;;;;;4997270;28;20397;-59
2022/08/01 13:53:56;;;;;;;20.17;12.90;;;;;;;;;;5000433;28;20596;-59
2022/08/01 13:56:23;;;;;;;22.02;13.27;;;;;;;;;;4997967;28;20050;-61
2022/08/01 13:58:50;;;;;;;19.70;13.55;;;;;;;;;;5000604;28;20069;-61
2022/08/01 14:01:17;;;;;;;19.48;12.93;;;;;;;;;;5017116;28;20038;-61
2022/08/01 14:03:44;;;;;;;23.73;13.75;;;;;;;;;;4999638;28;20116;-61
2022/08/01 14:06:10;;;;;;;22.10;13.88;;;;;;;;;;4998752;28;20641;-61
2022/08/01 14:08:37;;;;;;;21.67;13.63;;;;;;;;;;4999413;28;20052;-60
2022/08/01 14:11:03;;;;;;;22.02;13.80;;;;;;;;;;4999718;28;20072;-61
2022/08/01 14:13:30;;;;;;;23.65;14.20;;;;;;;;;;4999658;28;20485;-61
2022/08/01 14:15:57;;;;;;;20.83;13.15;;;;;;;;;;4999305;28;20049;-60
2022/08/01 14:18:23;;;;;;;21.88;14.23;;;;;;;;;;4996556;28;20387;-60
2022/08/01 14:20:50;;;;;;;21.50;14.25;;;;;;;;;;5009992;28;20041;-62
2022/08/01 14:23:17;;;;;;;23.83;15.48;;;;;;;;;;4999261;28;20426;-61
2022/08/01 14:25:43;;;;;;;24.30;15.98;;;;;;;;;;4999883;28;20050;-59
2022/08/01 14:28:10;;;;;;;22.35;14.82;;;;;;;;;;5019374;28;20038;-60
2022/08/01 14:30:37;;;;;;;23.45;14.55;;;;;;;;;;4999977;28;20038;-58
2022/08/01 14:33:04;;;;;;;21.85;14.77;;;;;;;;;;5000669;28;20551;-58
2022/08/01 14:35:30;;;;;;;21.20;12.85;;;;;;;;;;4999166;28;20909;-59
2022/08/01 14:37:57;;;;;;;19.90;13.43;;;;;;;;;;5000058;28;20045;-60